UAL100 ESSA-KEWR
Flight info
| Callsign | UAL100 |
|---|---|
| Flight time | 4h 2m |
| Altitude | 34000 |
| Route | KOGAV DCT ROVPA DCT VALDI/M084F340 DCT 62N010W 62N020W 61N030W/M084F360 5930N04000W 56N050W DCT LOMSI/N0482F360 DCT DANOL DCT ENE DCT BAF DCT IGN DCT FLOSI FLOSI4 |
| Aircraft | B77W/H-SDE1E2E3FGHIJ2J3J4J5M1RWXY/LB1D1 |
Departure
| Time | 2026-05-05 14:36 |
|---|---|
| Airport | Stockholm-Arlanda Airport (ESSA) |
Arrival
| Time | 2026-05-05 18:39 |
|---|---|
| Airport | Newark Liberty International Airport (KEWR) |
| Time | Latitude | Longitude | Altitude | Speed | Heading |
|---|---|---|---|---|---|
| 2026-05-05 13:26 | 59.65342 | 17.93545 | 142 ft | 0 kts | 75° |
| 2026-05-05 14:25 | 59.65339 | 17.93523 | 142 ft | 2 kts | 71° |
| 2026-05-05 14:26 | 59.65333 | 17.93492 | 142 ft | 2 kts | 66° |
| 2026-05-05 14:26 | 59.65326 | 17.93464 | 142 ft | 2 kts | 57° |
| 2026-05-05 14:26 | 59.65315 | 17.93438 | 142 ft | 2 kts | 37° |
| 2026-05-05 14:26 | 59.65301 | 17.93424 | 142 ft | 2 kts | 5° |
| 2026-05-05 14:27 | 59.65286 | 17.93425 | 142 ft | 1 kts | 346° |
| 2026-05-05 14:27 | 59.65282 | 17.93427 | 142 ft | 0 kts | 344° |
| 2026-05-05 14:29 | 59.65289 | 17.93424 | 142 ft | 6 kts | 344° |
| 2026-05-05 14:30 | 59.65400 | 17.93362 | 142 ft | 15 kts | 345° |
| 2026-05-05 14:30 | 59.65555 | 17.93303 | 142 ft | 23 kts | 342° |
| 2026-05-05 14:30 | 59.65581 | 17.93013 | 142 ft | 28 kts | 253° |
| 2026-05-05 14:30 | 59.65528 | 17.92642 | 142 ft | 28 kts | 255° |
| 2026-05-05 14:31 | 59.65423 | 17.92339 | 143 ft | 28 kts | 214° |
| 2026-05-05 14:31 | 59.65254 | 17.92231 | 143 ft | 21 kts | 186° |
| 2026-05-05 14:31 | 59.65107 | 17.92193 | 143 ft | 21 kts | 188° |
| 2026-05-05 14:31 | 59.65012 | 17.92158 | 143 ft | 21 kts | 193° |
| 2026-05-05 14:32 | 59.64868 | 17.92098 | 143 ft | 21 kts | 191° |
| 2026-05-05 14:32 | 59.64725 | 17.92042 | 143 ft | 21 kts | 191° |
| 2026-05-05 14:32 | 59.64533 | 17.91969 | 142 ft | 21 kts | 191° |
| 2026-05-05 14:32 | 59.64436 | 17.91932 | 143 ft | 21 kts | 191° |
| 2026-05-05 14:33 | 59.64245 | 17.91862 | 142 ft | 21 kts | 188° |
| 2026-05-05 14:33 | 59.64147 | 17.91833 | 142 ft | 21 kts | 188° |
| 2026-05-05 14:33 | 59.64002 | 17.91790 | 142 ft | 21 kts | 188° |
| 2026-05-05 14:33 | 59.63861 | 17.91728 | 143 ft | 21 kts | 203° |
| 2026-05-05 14:34 | 59.63744 | 17.91557 | 144 ft | 21 kts | 234° |
| 2026-05-05 14:34 | 59.63728 | 17.91431 | 148 ft | 7 kts | 283° |
| 2026-05-05 14:34 | 59.63770 | 17.91351 | 151 ft | 13 kts | 342° |
| 2026-05-05 14:34 | 59.63807 | 17.91351 | 150 ft | 1 kts | 7° |
| 2026-05-05 14:35 | 59.63808 | 17.91351 | 150 ft | 0 kts | 7° |
| 2026-05-05 14:35 | 59.63847 | 17.91362 | 150 ft | 28 kts | 8° |
| 2026-05-05 14:35 | 59.64306 | 17.91524 | 147 ft | 103 kts | 11° |
| 2026-05-05 14:35 | 59.65225 | 17.91862 | 149 ft | 164 kts | 11° |
| 2026-05-05 14:36 | 59.66464 | 17.92328 | 396 ft | 185 kts | 7° |
| 2026-05-05 14:36 | 59.67716 | 17.92865 | 1173 ft | 183 kts | 9° |
| 2026-05-05 14:36 | 59.69017 | 17.93379 | 1664 ft | 198 kts | 7° |
| 2026-05-05 14:36 | 59.70436 | 17.93860 | 2018 ft | 219 kts | 6° |
| 2026-05-05 14:37 | 59.72024 | 17.94323 | 2454 ft | 239 kts | 4° |
| 2026-05-05 14:37 | 59.73672 | 17.94826 | 3170 ft | 247 kts | 6° |
| 2026-05-05 14:37 | 59.75436 | 17.95241 | 3783 ft | 260 kts | 0° |
| 2026-05-05 14:37 | 59.77234 | 17.95401 | 4618 ft | 260 kts | 359° |
| 2026-05-05 14:38 | 59.79033 | 17.95548 | 4799 ft | 259 kts | 359° |
| 2026-05-05 14:38 | 59.80831 | 17.95723 | 4976 ft | 257 kts | 359° |
| 2026-05-05 14:38 | 59.82637 | 17.95905 | 5052 ft | 267 kts | 359° |
| 2026-05-05 14:38 | 59.84451 | 17.95596 | 4990 ft | 253 kts | 336° |
| 2026-05-05 14:39 | 59.85846 | 17.93612 | 4933 ft | 246 kts | 301° |
| 2026-05-05 14:39 | 59.86646 | 17.90666 | 5025 ft | 248 kts | 297° |
| 2026-05-05 14:39 | 59.87542 | 17.87690 | 5019 ft | 252 kts | 301° |
| 2026-05-05 14:39 | 59.88486 | 17.84763 | 5009 ft | 250 kts | 301° |
| 2026-05-05 14:40 | 59.89430 | 17.81858 | 4999 ft | 248 kts | 301° |
| 2026-05-05 14:40 | 59.90365 | 17.78974 | 4994 ft | 247 kts | 301° |
| 2026-05-05 14:40 | 59.91289 | 17.76105 | 4995 ft | 246 kts | 301° |
| 2026-05-05 14:40 | 59.92216 | 17.73228 | 5252 ft | 246 kts | 301° |
| 2026-05-05 14:41 | 59.93150 | 17.70305 | 6067 ft | 253 kts | 301° |
| 2026-05-05 14:41 | 59.94091 | 17.67351 | 6853 ft | 257 kts | 301° |
| 2026-05-05 14:41 | 59.95054 | 17.64322 | 7714 ft | 259 kts | 301° |
| 2026-05-05 14:41 | 59.96022 | 17.61272 | 8577 ft | 261 kts | 301° |
| 2026-05-05 14:42 | 59.97001 | 17.58188 | 9406 ft | 265 kts | 300° |
| 2026-05-05 14:42 | 59.98000 | 17.55045 | 10129 ft | 271 kts | 300° |
| 2026-05-05 14:42 | 59.99048 | 17.51752 | 10488 ft | 292 kts | 301° |
| 2026-05-05 14:42 | 60.00183 | 17.48174 | 10713 ft | 317 kts | 301° |
| 2026-05-05 14:43 | 60.01393 | 17.44343 | 10945 ft | 341 kts | 301° |
| 2026-05-05 14:43 | 60.02685 | 17.40243 | 11567 ft | 352 kts | 301° |
| 2026-05-05 14:43 | 60.04006 | 17.36053 | 12380 ft | 359 kts | 301° |
| 2026-05-05 14:43 | 60.05342 | 17.31806 | 13293 ft | 363 kts | 300° |
| 2026-05-05 14:44 | 60.06677 | 17.27550 | 14167 ft | 365 kts | 300° |
| 2026-05-05 14:44 | 60.08004 | 17.23252 | 15223 ft | 357 kts | 295° |
| 2026-05-05 14:44 | 60.08962 | 17.18724 | 16216 ft | 349 kts | 283° |
| 2026-05-05 14:44 | 60.09653 | 17.14098 | 17316 ft | 344 kts | 281° |
| 2026-05-05 14:45 | 60.10314 | 17.09573 | 18417 ft | 339 kts | 281° |
| 2026-05-05 14:45 | 60.10981 | 17.05021 | 19173 ft | 341 kts | 280° |
| 2026-05-05 14:45 | 60.11661 | 17.00414 | 19781 ft | 347 kts | 280° |
| 2026-05-05 14:45 | 60.12356 | 16.95751 | 20437 ft | 351 kts | 281° |
| 2026-05-05 14:46 | 60.13063 | 16.91055 | 21143 ft | 353 kts | 281° |
| 2026-05-05 14:46 | 60.13779 | 16.86320 | 21906 ft | 354 kts | 280° |
| 2026-05-05 14:46 | 60.14488 | 16.81656 | 22749 ft | 353 kts | 280° |
| 2026-05-05 14:46 | 60.15208 | 16.76919 | 23460 ft | 355 kts | 279° |
| 2026-05-05 14:47 | 60.15929 | 16.72152 | 23952 ft | 359 kts | 279° |
| 2026-05-05 14:47 | 60.16658 | 16.67320 | 24389 ft | 364 kts | 280° |
| 2026-05-05 14:47 | 60.17395 | 16.62430 | 24878 ft | 368 kts | 280° |
| 2026-05-05 14:47 | 60.18138 | 16.57488 | 25361 ft | 371 kts | 280° |
| 2026-05-05 14:48 | 60.18888 | 16.52495 | 25833 ft | 374 kts | 280° |
| 2026-05-05 14:48 | 60.19640 | 16.47464 | 26290 ft | 378 kts | 280° |
| 2026-05-05 14:48 | 60.20398 | 16.42384 | 26725 ft | 381 kts | 280° |
| 2026-05-05 14:48 | 60.21163 | 16.37246 | 27163 ft | 384 kts | 280° |
| 2026-05-05 14:49 | 60.21926 | 16.32107 | 27586 ft | 388 kts | 280° |
| 2026-05-05 14:49 | 60.22701 | 16.26866 | 28010 ft | 391 kts | 280° |
| 2026-05-05 14:49 | 60.23472 | 16.21641 | 28459 ft | 393 kts | 280° |
| 2026-05-05 14:49 | 60.23747 | 16.19769 | 28619 ft | 394 kts | 280° |
| 2026-05-05 14:50 | 60.24190 | 16.16757 | 28852 ft | 395 kts | 280° |
| 2026-05-05 14:51 | 60.24971 | 16.11425 | 29212 ft | 398 kts | 280° |
| 2026-05-05 14:51 | 60.25750 | 16.06090 | 29520 ft | 401 kts | 280° |
| 2026-05-05 14:51 | 60.26537 | 16.00684 | 29833 ft | 404 kts | 280° |
| 2026-05-05 14:51 | 60.27325 | 15.95260 | 30177 ft | 404 kts | 280° |
| 2026-05-05 14:52 | 60.28118 | 15.89783 | 30469 ft | 405 kts | 280° |
| 2026-05-05 14:52 | 60.28909 | 15.84299 | 30747 ft | 407 kts | 280° |
| 2026-05-05 14:52 | 60.29700 | 15.78799 | 31037 ft | 408 kts | 280° |
| 2026-05-05 14:52 | 60.30488 | 15.73296 | 31330 ft | 409 kts | 280° |
| 2026-05-05 14:53 | 60.31267 | 15.67839 | 31609 ft | 410 kts | 281° |
| 2026-05-05 14:53 | 60.32055 | 15.62294 | 31901 ft | 411 kts | 281° |
| 2026-05-05 14:53 | 60.32842 | 15.56743 | 32183 ft | 413 kts | 281° |
| 2026-05-05 14:53 | 60.33629 | 15.51165 | 32436 ft | 414 kts | 281° |
| 2026-05-05 14:54 | 60.34416 | 15.45579 | 32744 ft | 414 kts | 281° |
| 2026-05-05 14:54 | 60.35202 | 15.39979 | 33046 ft | 414 kts | 281° |
| 2026-05-05 14:54 | 60.35984 | 15.34386 | 33325 ft | 414 kts | 281° |
| 2026-05-05 14:54 | 60.36764 | 15.28781 | 33578 ft | 415 kts | 281° |
| 2026-05-05 14:55 | 60.37545 | 15.23157 | 33758 ft | 417 kts | 281° |
| 2026-05-05 14:55 | 60.38321 | 15.17537 | 33797 ft | 420 kts | 281° |
| 2026-05-05 14:55 | 60.39889 | 15.06151 | 33833 ft | 416 kts | 281° |
| 2026-05-05 14:56 | 60.41416 | 14.94988 | 33857 ft | 413 kts | 281° |
| 2026-05-05 14:56 | 60.42943 | 14.83720 | 33865 ft | 414 kts | 280° |
| 2026-05-05 14:57 | 60.44455 | 14.72475 | 33858 ft | 417 kts | 280° |
| 2026-05-05 14:57 | 60.45976 | 14.61093 | 33861 ft | 419 kts | 280° |
| 2026-05-05 14:58 | 60.47494 | 14.49657 | 33865 ft | 421 kts | 280° |
| 2026-05-05 14:58 | 60.49010 | 14.38146 | 33856 ft | 422 kts | 280° |
| 2026-05-05 14:59 | 60.50515 | 14.26633 | 33867 ft | 424 kts | 280° |
| 2026-05-05 14:59 | 60.52013 | 14.15088 | 33863 ft | 427 kts | 280° |
| 2026-05-05 15:00 | 60.53267 | 14.05356 | 33869 ft | 428 kts | 280° |
| 2026-05-05 15:00 | 60.55014 | 13.91695 | 33867 ft | 429 kts | 280° |
| 2026-05-05 15:01 | 60.56506 | 13.79924 | 33859 ft | 430 kts | 280° |
| 2026-05-05 15:01 | 60.57991 | 13.68121 | 33858 ft | 429 kts | 280° |
| 2026-05-05 15:02 | 60.59452 | 13.56404 | 33873 ft | 430 kts | 281° |
| 2026-05-05 15:02 | 60.60913 | 13.44605 | 33868 ft | 432 kts | 280° |
| 2026-05-05 15:03 | 60.62376 | 13.32692 | 33861 ft | 433 kts | 280° |
| 2026-05-05 15:03 | 60.63825 | 13.20798 | 33866 ft | 434 kts | 280° |
| 2026-05-05 15:04 | 60.65272 | 13.08821 | 33860 ft | 435 kts | 280° |
| 2026-05-05 15:04 | 60.66701 | 12.96892 | 33862 ft | 434 kts | 280° |
| 2026-05-05 15:05 | 60.68828 | 12.78957 | 33852 ft | 433 kts | 280° |
| 2026-05-05 15:06 | 60.70234 | 12.66967 | 33867 ft | 433 kts | 280° |
| 2026-05-05 15:06 | 60.71618 | 12.55070 | 33857 ft | 432 kts | 280° |
| 2026-05-05 15:07 | 60.72999 | 12.43117 | 33856 ft | 432 kts | 279° |
| 2026-05-05 15:07 | 60.74171 | 12.31048 | 33867 ft | 431 kts | 277° |
| 2026-05-05 15:08 | 60.75181 | 12.18946 | 33859 ft | 431 kts | 277° |
| 2026-05-05 15:08 | 60.76171 | 12.06923 | 33847 ft | 431 kts | 277° |
| 2026-05-05 15:09 | 60.77168 | 11.94804 | 33861 ft | 431 kts | 277° |
| 2026-05-05 15:09 | 60.78156 | 11.82737 | 33842 ft | 432 kts | 277° |
| 2026-05-05 15:10 | 60.79139 | 11.70601 | 33839 ft | 432 kts | 277° |
| 2026-05-05 15:10 | 60.80110 | 11.58458 | 33852 ft | 432 kts | 277° |
| 2026-05-05 15:11 | 60.81068 | 11.46351 | 33847 ft | 432 kts | 277° |
| 2026-05-05 15:11 | 60.82021 | 11.34154 | 33846 ft | 433 kts | 277° |
| 2026-05-05 15:12 | 60.82959 | 11.22005 | 33845 ft | 433 kts | 277° |
| 2026-05-05 15:12 | 60.83892 | 11.09766 | 33846 ft | 433 kts | 277° |
| 2026-05-05 15:13 | 60.84806 | 10.97612 | 33856 ft | 433 kts | 277° |
| 2026-05-05 15:13 | 60.85717 | 10.85362 | 33849 ft | 434 kts | 277° |
| 2026-05-05 15:14 | 60.86618 | 10.73080 | 33848 ft | 435 kts | 277° |
| 2026-05-05 15:14 | 60.88218 | 10.50875 | 33853 ft | 435 kts | 277° |
| 2026-05-05 15:15 | 60.91634 | 10.01579 | 33835 ft | 436 kts | 277° |
| 2026-05-05 15:15 | 60.94864 | 9.52237 | 33860 ft | 433 kts | 276° |
| 2026-05-05 15:16 | 60.97884 | 9.03292 | 33867 ft | 431 kts | 276° |
| 2026-05-05 15:16 | 61.00715 | 8.54464 | 33872 ft | 427 kts | 276° |
| 2026-05-05 15:17 | 61.02918 | 8.14106 | 33914 ft | 430 kts | 276° |
| 2026-05-05 15:17 | 61.04147 | 7.90559 | 33953 ft | 443 kts | 275° |
| 2026-05-05 15:17 | 61.05040 | 7.72910 | 33947 ft | 442 kts | 275° |
| 2026-05-05 15:18 | 61.06899 | 7.34606 | 33985 ft | 428 kts | 275° |
| 2026-05-05 15:18 | 61.07534 | 7.20943 | 33900 ft | 436 kts | 275° |
| 2026-05-05 15:19 | 61.08822 | 6.92289 | 33886 ft | 438 kts | 275° |
| 2026-05-05 15:19 | 61.10910 | 6.42641 | 33904 ft | 435 kts | 275° |
| 2026-05-05 15:20 | 61.12814 | 5.92884 | 33941 ft | 434 kts | 275° |
| 2026-05-05 15:20 | 61.13660 | 5.69090 | 33960 ft | 434 kts | 274° |
| 2026-05-05 15:24 | 61.14324 | 5.49474 | 33986 ft | 432 kts | 274° |
| 2026-05-05 15:25 | 61.15882 | 4.99823 | 33962 ft | 430 kts | 274° |
| 2026-05-05 15:25 | 61.17248 | 4.50484 | 33966 ft | 427 kts | 273° |
| 2026-05-05 15:26 | 61.18427 | 4.01405 | 33982 ft | 426 kts | 273° |
| 2026-05-05 15:26 | 61.19422 | 3.52616 | 33961 ft | 426 kts | 272° |
| 2026-05-05 15:27 | 61.20247 | 3.03485 | 33993 ft | 426 kts | 272° |
| 2026-05-05 15:27 | 61.20897 | 2.54036 | 33987 ft | 427 kts | 272° |
| 2026-05-05 15:28 | 61.21366 | 2.04779 | 33976 ft | 428 kts | 271° |
| 2026-05-05 15:28 | 61.21655 | 1.55526 | 34004 ft | 428 kts | 271° |
| 2026-05-05 15:29 | 61.21766 | 1.06374 | 34029 ft | 427 kts | 270° |
| 2026-05-05 15:29 | 61.21698 | 0.56848 | 34024 ft | 427 kts | 270° |
| 2026-05-05 15:30 | 61.21461 | 0.07636 | 34048 ft | 427 kts | 271° |
| 2026-05-05 15:30 | 61.23302 | -0.16689 | 34081 ft | 427 kts | 282° |
| 2026-05-05 15:30 | 61.26088 | -0.40450 | 34050 ft | 428 kts | 282° |
| 2026-05-05 15:31 | 61.31551 | -0.88913 | 34061 ft | 429 kts | 282° |
| 2026-05-05 15:31 | 61.36847 | -1.37633 | 34106 ft | 431 kts | 281° |
| 2026-05-05 15:32 | 61.39594 | -1.63618 | 34087 ft | 434 kts | 281° |
| 2026-05-05 15:32 | 61.41965 | -1.86480 | 34105 ft | 435 kts | 281° |
| 2026-05-05 15:33 | 61.44653 | -2.12899 | 34146 ft | 435 kts | 281° |
| 2026-05-05 15:33 | 61.46180 | -2.28157 | 34098 ft | 437 kts | 281° |
| 2026-05-05 15:34 | 61.48278 | -2.49426 | 34110 ft | 437 kts | 281° |
| 2026-05-05 15:34 | 61.50273 | -2.70002 | 34168 ft | 436 kts | 281° |
| 2026-05-05 15:35 | 61.52171 | -2.89904 | 34095 ft | 438 kts | 281° |
| 2026-05-05 15:35 | 61.55185 | -3.22198 | 34077 ft | 437 kts | 280° |
| 2026-05-05 15:36 | 61.59689 | -3.72194 | 34094 ft | 435 kts | 280° |
| 2026-05-05 15:36 | 61.64020 | -4.22450 | 34102 ft | 436 kts | 279° |
| 2026-05-05 15:37 | 61.68148 | -4.72620 | 34099 ft | 436 kts | 279° |
| 2026-05-05 15:37 | 61.72094 | -5.22949 | 34113 ft | 437 kts | 279° |
| 2026-05-05 15:38 | 61.75879 | -5.73738 | 34091 ft | 437 kts | 279° |
| 2026-05-05 15:38 | 61.79478 | -6.24671 | 34162 ft | 438 kts | 279° |
| 2026-05-05 15:39 | 61.81075 | -6.48220 | 34215 ft | 437 kts | 278° |
| 2026-05-05 15:39 | 61.82128 | -6.64093 | 34169 ft | 440 kts | 278° |
| 2026-05-05 15:40 | 61.84447 | -7.00096 | 34174 ft | 439 kts | 278° |
| 2026-05-05 15:40 | 61.87574 | -7.51266 | 34181 ft | 438 kts | 278° |
| 2026-05-05 15:41 | 61.90510 | -8.02540 | 34155 ft | 438 kts | 277° |
| 2026-05-05 15:41 | 61.93244 | -8.53677 | 34162 ft | 437 kts | 277° |
| 2026-05-05 15:42 | 61.95807 | -9.05278 | 34223 ft | 438 kts | 277° |
| 2026-05-05 15:42 | 61.98171 | -9.56859 | 34182 ft | 440 kts | 276° |
| 2026-05-05 15:43 | 62.00336 | -10.08788 | 34188 ft | 442 kts | 276° |
| 2026-05-05 15:43 | 62.02068 | -10.60869 | 34190 ft | 441 kts | 275° |
| 2026-05-05 15:44 | 62.03635 | -11.13237 | 34182 ft | 440 kts | 275° |
| 2026-05-05 15:44 | 62.04994 | -11.65297 | 34200 ft | 441 kts | 275° |
| 2026-05-05 15:45 | 62.06156 | -12.17375 | 34203 ft | 442 kts | 275° |
| 2026-05-05 15:45 | 62.07126 | -12.69708 | 34192 ft | 441 kts | 274° |
| 2026-05-05 15:46 | 62.07895 | -13.21821 | 34206 ft | 438 kts | 274° |
| 2026-05-05 15:46 | 62.08465 | -13.73699 | 34195 ft | 435 kts | 273° |
| 2026-05-05 15:47 | 62.08839 | -14.25176 | 34212 ft | 433 kts | 273° |
| 2026-05-05 15:47 | 62.09021 | -14.76383 | 34184 ft | 434 kts | 272° |
| 2026-05-05 15:48 | 62.09013 | -15.27913 | 34210 ft | 435 kts | 272° |
| 2026-05-05 15:48 | 62.08812 | -15.79663 | 34212 ft | 436 kts | 272° |
| 2026-05-05 15:49 | 62.08418 | -16.31355 | 34206 ft | 435 kts | 271° |
| 2026-05-05 15:49 | 62.07832 | -16.82975 | 34164 ft | 435 kts | 271° |
| 2026-05-05 15:50 | 62.07272 | -17.21326 | 34145 ft | 435 kts | 271° |
| 2026-05-05 15:50 | 62.06389 | -17.70943 | 34212 ft | 432 kts | 270° |
| 2026-05-05 15:51 | 62.05289 | -18.22253 | 34230 ft | 433 kts | 270° |
| 2026-05-05 15:51 | 62.03995 | -18.73664 | 34169 ft | 434 kts | 270° |
| 2026-05-05 15:52 | 62.02938 | -19.10853 | 34143 ft | 434 kts | 270° |
| 2026-05-05 15:52 | 62.02221 | -19.34310 | 34245 ft | 433 kts | 270° |
| 2026-05-05 15:52 | 62.01472 | -19.57503 | 34310 ft | 433 kts | 270° |
| 2026-05-05 15:53 | 62.00872 | -19.75293 | 34276 ft | 435 kts | 270° |
| 2026-05-05 15:53 | 61.99373 | -20.12149 | 34269 ft | 439 kts | 267° |
| 2026-05-05 15:54 | 61.97270 | -20.43559 | 34301 ft | 440 kts | 266° |
| 2026-05-05 15:54 | 61.95679 | -20.67800 | 34227 ft | 440 kts | 267° |
| 2026-05-05 15:55 | 61.92192 | -21.19064 | 34210 ft | 441 kts | 266° |
| 2026-05-05 15:55 | 61.88499 | -21.70379 | 34207 ft | 438 kts | 267° |
| 2026-05-05 15:56 | 61.84636 | -22.21289 | 34190 ft | 436 kts | 267° |
| 2026-05-05 15:56 | 61.80590 | -22.72038 | 34186 ft | 435 kts | 266° |
| 2026-05-05 15:57 | 61.76402 | -23.22123 | 34182 ft | 435 kts | 266° |
| 2026-05-05 15:57 | 61.72018 | -23.72218 | 34179 ft | 435 kts | 266° |
| 2026-05-05 15:58 | 61.67444 | -24.22245 | 34121 ft | 433 kts | 266° |
| 2026-05-05 15:58 | 61.65249 | -24.45527 | 34166 ft | 432 kts | 266° |
| 2026-05-05 15:59 | 61.62085 | -24.78318 | 34180 ft | 433 kts | 265° |
| 2026-05-05 15:59 | 61.57139 | -25.27887 | 34177 ft | 433 kts | 265° |
| 2026-05-05 16:00 | 61.52017 | -25.77280 | 34158 ft | 433 kts | 265° |
| 2026-05-05 16:00 | 61.46737 | -26.26332 | 34074 ft | 434 kts | 265° |
| 2026-05-05 16:01 | 61.41240 | -26.75569 | 34156 ft | 436 kts | 265° |
| 2026-05-05 16:01 | 61.35552 | -27.24757 | 34090 ft | 436 kts | 265° |
| 2026-05-05 16:02 | 61.29672 | -27.73878 | 34079 ft | 437 kts | 264° |
| 2026-05-05 16:02 | 61.23628 | -28.22704 | 34124 ft | 439 kts | 264° |
| 2026-05-05 16:03 | 61.17354 | -28.71774 | 34145 ft | 442 kts | 263° |
| 2026-05-05 16:03 | 61.10831 | -29.21187 | 34137 ft | 445 kts | 262° |
| 2026-05-05 16:04 | 61.04141 | -29.70312 | 34145 ft | 448 kts | 262° |
| 2026-05-05 16:04 | 60.97819 | -30.19945 | 34100 ft | 445 kts | 265° |
| 2026-05-05 16:05 | 60.95531 | -30.41072 | 34101 ft | 442 kts | 265° |
| 2026-05-05 16:05 | 60.91770 | -30.74790 | 34172 ft | 442 kts | 264° |
| 2026-05-05 16:06 | 60.86104 | -31.24042 | 34235 ft | 442 kts | 264° |
| 2026-05-05 16:06 | 60.82773 | -31.52220 | 34239 ft | 445 kts | 263° |
| 2026-05-05 16:07 | 60.80755 | -31.69032 | 34150 ft | 448 kts | 263° |
| 2026-05-05 16:07 | 60.78791 | -31.85200 | 34226 ft | 449 kts | 263° |
| 2026-05-05 16:08 | 60.74313 | -32.21406 | 34204 ft | 455 kts | 262° |
| 2026-05-05 16:08 | 60.67926 | -32.71559 | 34280 ft | 459 kts | 262° |
| 2026-05-05 16:09 | 60.64269 | -32.99554 | 34300 ft | 462 kts | 261° |
| 2026-05-05 16:09 | 60.60453 | -33.28234 | 34311 ft | 462 kts | 261° |
| 2026-05-05 16:10 | 60.58371 | -33.43666 | 34269 ft | 464 kts | 261° |
| 2026-05-05 16:10 | 60.53031 | -33.82554 | 34295 ft | 464 kts | 259° |
| 2026-05-05 16:11 | 60.50301 | -34.02089 | 34351 ft | 465 kts | 259° |
| 2026-05-05 16:11 | 60.45212 | -34.37883 | 34209 ft | 470 kts | 258° |
| 2026-05-05 16:12 | 60.41516 | -34.63380 | 34280 ft | 471 kts | 258° |
| 2026-05-05 16:13 | 60.31220 | -35.32441 | 34388 ft | 475 kts | 257° |
| 2026-05-05 16:13 | 60.29135 | -35.46096 | 34248 ft | 479 kts | 257° |
| 2026-05-05 16:14 | 60.22424 | -35.89306 | 34401 ft | 478 kts | 255° |
| 2026-05-05 16:14 | 60.19341 | -36.08804 | 34269 ft | 481 kts | 255° |
| 2026-05-05 16:15 | 60.02609 | -37.11031 | 34262 ft | 484 kts | 253° |
| 2026-05-05 16:16 | 59.88049 | -37.95517 | 34285 ft | 487 kts | 252° |
| 2026-05-05 16:17 | 59.74310 | -38.71878 | 34294 ft | 493 kts | 251° |
| 2026-05-05 16:18 | 59.59909 | -39.48777 | 34283 ft | 500 kts | 249° |
| 2026-05-05 16:19 | 59.43221 | -40.24151 | 34300 ft | 502 kts | 238° |
| 2026-05-05 16:19 | 59.22519 | -40.95782 | 34304 ft | 502 kts | 237° |
| 2026-05-05 16:20 | 59.10493 | -41.36491 | 34269 ft | 502 kts | 237° |
| 2026-05-05 16:22 | 58.88289 | -42.09832 | 34305 ft | 495 kts | 236° |
| 2026-05-05 16:23 | 58.78231 | -42.42305 | 34165 ft | 498 kts | 235° |
| 2026-05-05 16:23 | 58.74094 | -42.55533 | 34295 ft | 495 kts | 235° |
| 2026-05-05 16:23 | 58.69204 | -42.71070 | 34146 ft | 499 kts | 235° |
| 2026-05-05 16:24 | 58.54762 | -43.16375 | 34132 ft | 500 kts | 234° |
| 2026-05-05 16:25 | 58.38043 | -43.67755 | 34173 ft | 503 kts | 233° |
| 2026-05-05 16:25 | 58.26106 | -44.03768 | 34111 ft | 505 kts | 231° |
| 2026-05-05 16:26 | 58.13765 | -44.40430 | 33994 ft | 506 kts | 230° |
| 2026-05-05 16:27 | 58.00173 | -44.80168 | 34109 ft | 502 kts | 229° |
| 2026-05-05 16:27 | 57.96352 | -44.91219 | 34022 ft | 504 kts | 228° |
| 2026-05-05 16:28 | 57.87966 | -45.15293 | 34058 ft | 503 kts | 228° |
| 2026-05-05 16:28 | 57.79160 | -45.40316 | 34068 ft | 504 kts | 227° |
| 2026-05-05 16:29 | 57.73508 | -45.56236 | 33924 ft | 507 kts | 227° |
| 2026-05-05 16:29 | 57.62112 | -45.88034 | 34019 ft | 506 kts | 227° |
| 2026-05-05 16:30 | 57.56657 | -46.03102 | 33923 ft | 508 kts | 226° |
| 2026-05-05 16:30 | 57.47872 | -46.27175 | 34011 ft | 505 kts | 227° |
| 2026-05-05 16:31 | 57.42116 | -46.42818 | 34005 ft | 502 kts | 227° |
| 2026-05-05 16:31 | 57.37280 | -46.55882 | 33985 ft | 500 kts | 226° |
| 2026-05-05 16:32 | 57.27396 | -46.82356 | 33939 ft | 499 kts | 227° |
| 2026-05-05 16:32 | 57.19209 | -47.04075 | 33979 ft | 495 kts | 227° |
| 2026-05-05 16:33 | 57.14344 | -47.16884 | 33945 ft | 496 kts | 227° |
| 2026-05-05 16:33 | 57.05883 | -47.39003 | 33972 ft | 496 kts | 226° |
| 2026-05-05 16:34 | 57.01174 | -47.51224 | 33913 ft | 498 kts | 226° |
| 2026-05-05 16:34 | 56.95691 | -47.65376 | 33938 ft | 499 kts | 227° |
| 2026-05-05 16:35 | 56.90699 | -47.78195 | 33875 ft | 499 kts | 227° |
| 2026-05-05 16:35 | 56.83979 | -47.95347 | 33885 ft | 495 kts | 227° |
| 2026-05-05 16:36 | 56.81696 | -48.01144 | 33783 ft | 496 kts | 227° |
| 2026-05-05 16:36 | 56.79406 | -48.06945 | 33881 ft | 494 kts | 227° |
| 2026-05-05 16:36 | 56.72401 | -48.24607 | 33801 ft | 492 kts | 227° |
| 2026-05-05 16:37 | 56.56283 | -48.64758 | 33784 ft | 490 kts | 227° |
| 2026-05-05 16:37 | 56.41173 | -49.01806 | 33843 ft | 487 kts | 228° |
| 2026-05-05 16:38 | 56.33169 | -49.21203 | 33774 ft | 489 kts | 228° |
| 2026-05-05 16:38 | 56.25411 | -49.39856 | 33743 ft | 491 kts | 228° |
| 2026-05-05 16:39 | 56.14641 | -49.65526 | 33749 ft | 491 kts | 228° |
| 2026-05-05 16:39 | 56.08718 | -49.79529 | 33781 ft | 490 kts | 228° |
| 2026-05-05 16:40 | 56.03281 | -49.92317 | 33735 ft | 490 kts | 229° |
| 2026-05-05 16:40 | 55.98649 | -50.03474 | 33701 ft | 492 kts | 232° |
| 2026-05-05 16:41 | 55.85622 | -50.38387 | 33663 ft | 489 kts | 232° |
| 2026-05-05 16:41 | 55.70413 | -50.78354 | 33628 ft | 486 kts | 232° |
| 2026-05-05 16:42 | 55.55145 | -51.17836 | 33623 ft | 483 kts | 232° |
| 2026-05-05 16:42 | 55.39841 | -51.56787 | 33594 ft | 481 kts | 232° |
| 2026-05-05 16:43 | 55.24481 | -51.95270 | 33583 ft | 481 kts | 232° |
| 2026-05-05 16:43 | 55.09087 | -52.33247 | 33533 ft | 481 kts | 232° |
| 2026-05-05 16:44 | 54.93490 | -52.71136 | 33531 ft | 480 kts | 232° |
| 2026-05-05 16:44 | 54.77894 | -53.08454 | 33516 ft | 478 kts | 232° |
| 2026-05-05 16:45 | 54.62159 | -53.45542 | 33499 ft | 477 kts | 232° |
| 2026-05-05 16:45 | 54.46314 | -53.82337 | 33501 ft | 476 kts | 232° |
| 2026-05-05 16:46 | 54.37698 | -54.02115 | 33488 ft | 475 kts | 232° |
| 2026-05-05 16:46 | 54.29767 | -54.20191 | 33491 ft | 473 kts | 232° |
| 2026-05-05 16:47 | 54.21844 | -54.38112 | 33495 ft | 472 kts | 232° |
| 2026-05-05 16:47 | 54.13936 | -54.55874 | 33499 ft | 472 kts | 232° |
| 2026-05-05 16:48 | 54.05933 | -54.73719 | 33498 ft | 473 kts | 232° |
| 2026-05-05 16:48 | 53.97910 | -54.91484 | 33497 ft | 473 kts | 232° |
| 2026-05-05 16:49 | 53.89897 | -55.09102 | 33498 ft | 474 kts | 232° |
| 2026-05-05 16:49 | 53.81776 | -55.26827 | 33498 ft | 475 kts | 232° |
| 2026-05-05 16:50 | 53.73677 | -55.44385 | 33498 ft | 475 kts | 232° |
| 2026-05-05 16:50 | 53.65560 | -55.61857 | 33487 ft | 475 kts | 232° |
| 2026-05-05 16:51 | 53.57361 | -55.79381 | 33488 ft | 474 kts | 232° |
| 2026-05-05 16:51 | 53.49188 | -55.96731 | 33462 ft | 474 kts | 232° |
| 2026-05-05 16:52 | 53.40996 | -56.14000 | 33471 ft | 473 kts | 232° |
| 2026-05-05 16:52 | 53.32766 | -56.31230 | 33463 ft | 472 kts | 232° |
| 2026-05-05 16:53 | 53.24562 | -56.48289 | 33471 ft | 471 kts | 232° |
| 2026-05-05 16:53 | 53.16319 | -56.65318 | 33469 ft | 471 kts | 232° |
| 2026-05-05 16:54 | 53.08068 | -56.82138 | 33483 ft | 470 kts | 231° |
| 2026-05-05 16:54 | 52.99365 | -56.98225 | 33497 ft | 470 kts | 230° |
| 2026-05-05 16:55 | 52.90619 | -57.14355 | 33513 ft | 468 kts | 231° |
| 2026-05-05 16:55 | 52.81911 | -57.30409 | 33523 ft | 468 kts | 230° |
| 2026-05-05 16:56 | 52.73228 | -57.46306 | 33488 ft | 468 kts | 231° |
| 2026-05-05 16:56 | 52.67067 | -57.57521 | 33547 ft | 466 kts | 231° |
| 2026-05-05 16:57 | 52.56893 | -57.75934 | 33559 ft | 465 kts | 231° |
| 2026-05-05 16:57 | 52.49613 | -57.89027 | 33544 ft | 466 kts | 231° |
| 2026-05-05 16:58 | 52.40822 | -58.04741 | 33571 ft | 466 kts | 230° |
| 2026-05-05 16:58 | 52.32081 | -58.20269 | 33575 ft | 464 kts | 231° |
| 2026-05-05 16:59 | 52.23321 | -58.35735 | 33584 ft | 462 kts | 231° |
| 2026-05-05 16:59 | 52.14632 | -58.50978 | 33597 ft | 459 kts | 231° |
| 2026-05-05 17:00 | 52.05924 | -58.66164 | 33609 ft | 457 kts | 231° |
| 2026-05-05 17:00 | 51.97211 | -58.81262 | 33528 ft | 457 kts | 231° |
| 2026-05-05 17:01 | 51.90115 | -58.93492 | 33600 ft | 455 kts | 231° |
| 2026-05-05 17:01 | 51.81395 | -59.08440 | 33611 ft | 455 kts | 231° |
| 2026-05-05 17:02 | 51.72663 | -59.23317 | 33611 ft | 456 kts | 231° |
| 2026-05-05 17:02 | 51.63949 | -59.38075 | 33564 ft | 457 kts | 231° |
| 2026-05-05 17:03 | 51.56421 | -59.50751 | 33611 ft | 457 kts | 231° |
| 2026-05-05 17:03 | 51.47606 | -59.65516 | 33580 ft | 458 kts | 231° |
| 2026-05-05 17:04 | 51.38818 | -59.80145 | 33619 ft | 457 kts | 231° |
| 2026-05-05 17:04 | 51.29950 | -59.94824 | 33579 ft | 457 kts | 232° |
| 2026-05-05 17:05 | 51.23522 | -60.05405 | 33631 ft | 454 kts | 232° |
| 2026-05-05 17:05 | 51.14878 | -60.19565 | 33649 ft | 450 kts | 232° |
| 2026-05-05 17:06 | 51.06186 | -60.33724 | 33636 ft | 444 kts | 232° |
| 2026-05-05 17:06 | 50.97627 | -60.47583 | 33658 ft | 434 kts | 232° |
| 2026-05-05 17:07 | 50.89189 | -60.61180 | 33632 ft | 430 kts | 233° |
| 2026-05-05 17:07 | 50.82201 | -60.72395 | 33672 ft | 440 kts | 233° |
| 2026-05-05 17:08 | 50.73476 | -60.86311 | 33657 ft | 446 kts | 232° |
| 2026-05-05 17:08 | 50.64781 | -61.00082 | 33688 ft | 439 kts | 232° |
| 2026-05-05 17:09 | 50.56228 | -61.13572 | 33650 ft | 435 kts | 232° |
| 2026-05-05 17:09 | 50.47575 | -61.27158 | 33721 ft | 444 kts | 232° |
| 2026-05-05 17:10 | 50.38786 | -61.40868 | 33704 ft | 450 kts | 232° |
| 2026-05-05 17:10 | 50.31634 | -61.51964 | 33719 ft | 450 kts | 232° |
| 2026-05-05 17:11 | 50.23156 | -61.65041 | 33726 ft | 442 kts | 232° |
| 2026-05-05 17:11 | 50.14446 | -61.78431 | 33685 ft | 442 kts | 232° |
| 2026-05-05 17:12 | 50.05586 | -61.91980 | 33724 ft | 450 kts | 232° |
| 2026-05-05 17:12 | 49.96554 | -62.05698 | 33729 ft | 455 kts | 232° |
| 2026-05-05 17:13 | 49.87606 | -62.19205 | 33715 ft | 445 kts | 232° |
| 2026-05-05 17:13 | 49.79227 | -62.31798 | 33618 ft | 439 kts | 232° |
| 2026-05-05 17:14 | 49.72039 | -62.42559 | 33688 ft | 436 kts | 232° |
| 2026-05-05 17:14 | 49.64518 | -62.53780 | 33723 ft | 450 kts | 232° |
| 2026-05-05 17:15 | 49.55542 | -62.67064 | 33716 ft | 445 kts | 232° |
| 2026-05-05 17:15 | 49.46734 | -62.80039 | 33709 ft | 436 kts | 232° |
| 2026-05-05 17:16 | 49.40607 | -62.89039 | 33708 ft | 433 kts | 232° |
| 2026-05-05 17:16 | 49.31918 | -63.01741 | 33720 ft | 432 kts | 232° |
| 2026-05-05 17:17 | 49.23157 | -63.14484 | 33777 ft | 437 kts | 231° |
| 2026-05-05 17:17 | 49.14277 | -63.27332 | 33757 ft | 445 kts | 231° |
| 2026-05-05 17:18 | 49.05286 | -63.40253 | 33729 ft | 440 kts | 231° |
| 2026-05-05 17:18 | 48.96436 | -63.52913 | 33732 ft | 431 kts | 231° |
| 2026-05-05 17:19 | 48.87737 | -63.65308 | 33649 ft | 428 kts | 231° |
| 2026-05-05 17:19 | 48.79749 | -63.76642 | 33747 ft | 437 kts | 231° |
| 2026-05-05 17:20 | 48.70820 | -63.89232 | 33735 ft | 438 kts | 230° |
| 2026-05-05 17:20 | 48.62030 | -64.01547 | 33713 ft | 424 kts | 230° |
| 2026-05-05 17:21 | 48.53425 | -64.13577 | 33650 ft | 424 kts | 230° |
| 2026-05-05 17:22 | 48.41474 | -64.30184 | 33743 ft | 438 kts | 230° |
| 2026-05-05 17:22 | 48.32538 | -64.42504 | 33713 ft | 431 kts | 229° |
| 2026-05-05 17:23 | 48.24800 | -64.53130 | 33726 ft | 425 kts | 229° |
| 2026-05-05 17:23 | 48.16058 | -64.65091 | 33726 ft | 424 kts | 229° |
| 2026-05-05 17:24 | 48.07373 | -64.76916 | 33722 ft | 425 kts | 229° |
| 2026-05-05 17:24 | 47.98567 | -64.88847 | 33697 ft | 427 kts | 229° |
| 2026-05-05 17:25 | 47.89704 | -65.00795 | 33719 ft | 430 kts | 229° |
| 2026-05-05 17:25 | 47.80816 | -65.12718 | 33704 ft | 433 kts | 229° |
| 2026-05-05 17:26 | 47.71795 | -65.24762 | 33696 ft | 436 kts | 228° |
| 2026-05-05 17:26 | 47.62728 | -65.36808 | 33688 ft | 437 kts | 228° |
| 2026-05-05 17:27 | 47.53683 | -65.48763 | 33724 ft | 437 kts | 227° |
| 2026-05-05 17:27 | 47.44613 | -65.60699 | 33689 ft | 434 kts | 227° |
| 2026-05-05 17:28 | 47.35615 | -65.72484 | 33668 ft | 432 kts | 227° |
| 2026-05-05 17:28 | 47.26622 | -65.84204 | 33699 ft | 430 kts | 227° |
| 2026-05-05 17:29 | 47.17721 | -65.95751 | 33712 ft | 428 kts | 227° |
| 2026-05-05 17:29 | 47.13061 | -66.01776 | 33702 ft | 429 kts | 227° |
| 2026-05-05 17:30 | 47.08564 | -66.07577 | 33719 ft | 431 kts | 227° |
| 2026-05-05 17:30 | 47.04045 | -66.13392 | 33725 ft | 433 kts | 227° |
| 2026-05-05 17:31 | 46.99514 | -66.19209 | 33717 ft | 434 kts | 227° |
| 2026-05-05 17:31 | 46.94965 | -66.25033 | 33717 ft | 435 kts | 226° |
| 2026-05-05 17:32 | 46.90420 | -66.30839 | 33719 ft | 435 kts | 226° |
| 2026-05-05 17:32 | 46.85856 | -66.36654 | 33717 ft | 435 kts | 226° |
| 2026-05-05 17:33 | 46.81292 | -66.42457 | 33701 ft | 435 kts | 226° |
| 2026-05-05 17:33 | 46.76731 | -66.48242 | 33725 ft | 434 kts | 226° |
| 2026-05-05 17:34 | 46.72186 | -66.53996 | 33731 ft | 434 kts | 226° |
| 2026-05-05 17:34 | 46.67621 | -66.59761 | 33729 ft | 434 kts | 226° |
| 2026-05-05 17:35 | 46.63051 | -66.65518 | 33714 ft | 434 kts | 226° |
| 2026-05-05 17:35 | 46.58476 | -66.71269 | 33724 ft | 435 kts | 226° |
| 2026-05-05 17:36 | 46.53900 | -66.77006 | 33735 ft | 436 kts | 226° |
| 2026-05-05 17:36 | 46.49313 | -66.82746 | 33737 ft | 436 kts | 226° |
| 2026-05-05 17:37 | 46.44704 | -66.88498 | 33744 ft | 437 kts | 226° |
| 2026-05-05 17:37 | 46.40108 | -66.94221 | 33736 ft | 436 kts | 226° |
| 2026-05-05 17:38 | 46.35513 | -66.99929 | 33733 ft | 435 kts | 226° |
| 2026-05-05 17:38 | 46.30922 | -67.05619 | 33735 ft | 433 kts | 226° |
| 2026-05-05 17:39 | 46.26346 | -67.11279 | 33725 ft | 433 kts | 225° |
| 2026-05-05 17:39 | 46.21801 | -67.16889 | 33742 ft | 433 kts | 225° |
| 2026-05-05 17:40 | 46.17205 | -67.22547 | 33741 ft | 434 kts | 225° |
| 2026-05-05 17:40 | 46.12597 | -67.28208 | 33729 ft | 435 kts | 225° |
| 2026-05-05 17:41 | 46.08011 | -67.33829 | 33735 ft | 435 kts | 225° |
| 2026-05-05 17:41 | 46.03388 | -67.39481 | 33744 ft | 435 kts | 225° |
| 2026-05-05 17:42 | 45.98795 | -67.45085 | 33747 ft | 436 kts | 225° |
| 2026-05-05 17:42 | 45.94164 | -67.50723 | 33726 ft | 436 kts | 225° |
| 2026-05-05 17:43 | 45.89529 | -67.56352 | 33735 ft | 436 kts | 225° |
| 2026-05-05 17:43 | 45.84883 | -67.61983 | 33741 ft | 437 kts | 224° |
| 2026-05-05 17:44 | 45.80229 | -67.67610 | 33749 ft | 437 kts | 224° |
| 2026-05-05 17:44 | 45.75592 | -67.73205 | 33747 ft | 437 kts | 224° |
| 2026-05-05 17:45 | 45.70924 | -67.78827 | 33762 ft | 438 kts | 224° |
| 2026-05-05 17:45 | 45.66348 | -67.84505 | 33771 ft | 437 kts | 226° |
| 2026-05-05 17:46 | 45.62603 | -67.89428 | 33761 ft | 437 kts | 227° |
| 2026-05-05 17:46 | 45.57407 | -67.96277 | 33765 ft | 437 kts | 226° |
| 2026-05-05 17:47 | 45.52932 | -68.02116 | 33775 ft | 437 kts | 226° |
| 2026-05-05 17:47 | 45.49182 | -68.06979 | 33774 ft | 438 kts | 226° |
| 2026-05-05 17:48 | 45.44666 | -68.12815 | 33758 ft | 438 kts | 226° |
| 2026-05-05 17:48 | 45.40151 | -68.18636 | 33796 ft | 437 kts | 226° |
| 2026-05-05 17:49 | 45.35665 | -68.24407 | 33782 ft | 435 kts | 226° |
| 2026-05-05 17:49 | 45.31172 | -68.30174 | 33795 ft | 434 kts | 226° |
| 2026-05-05 17:50 | 45.26692 | -68.35915 | 33786 ft | 433 kts | 226° |
| 2026-05-05 17:50 | 45.22202 | -68.41656 | 33791 ft | 434 kts | 226° |
| 2026-05-05 17:51 | 45.17708 | -68.47388 | 33798 ft | 434 kts | 226° |
| 2026-05-05 17:51 | 45.13232 | -68.53083 | 33798 ft | 435 kts | 226° |
| 2026-05-05 17:52 | 45.08714 | -68.58821 | 33792 ft | 436 kts | 225° |
| 2026-05-05 17:52 | 45.04191 | -68.64552 | 33795 ft | 436 kts | 225° |
| 2026-05-05 17:53 | 44.99682 | -68.70251 | 33798 ft | 437 kts | 225° |
| 2026-05-05 17:53 | 44.95140 | -68.75981 | 33778 ft | 437 kts | 225° |
| 2026-05-05 17:54 | 44.90604 | -68.81689 | 33803 ft | 438 kts | 225° |
| 2026-05-05 17:54 | 44.86077 | -68.87374 | 33785 ft | 438 kts | 225° |
| 2026-05-05 17:55 | 44.81529 | -68.93073 | 33789 ft | 438 kts | 225° |
| 2026-05-05 17:55 | 44.76966 | -68.98778 | 33788 ft | 438 kts | 225° |
| 2026-05-05 17:56 | 44.72393 | -69.04484 | 33804 ft | 438 kts | 225° |
| 2026-05-05 17:56 | 44.67858 | -69.10128 | 33795 ft | 437 kts | 225° |
| 2026-05-05 17:57 | 44.63291 | -69.15801 | 33784 ft | 437 kts | 225° |
| 2026-05-05 17:57 | 44.58726 | -69.21459 | 33792 ft | 438 kts | 224° |
| 2026-05-05 17:58 | 44.54165 | -69.27101 | 33775 ft | 438 kts | 224° |
| 2026-05-05 17:58 | 44.49587 | -69.32748 | 33784 ft | 437 kts | 224° |
| 2026-05-05 17:59 | 44.45024 | -69.38365 | 33771 ft | 436 kts | 224° |
| 2026-05-05 17:59 | 44.40472 | -69.43959 | 33777 ft | 437 kts | 224° |
| 2026-05-05 18:00 | 44.35892 | -69.49578 | 33784 ft | 437 kts | 224° |
| 2026-05-05 18:00 | 44.31314 | -69.55177 | 33810 ft | 437 kts | 224° |
| 2026-05-05 18:01 | 44.26730 | -69.60773 | 33823 ft | 438 kts | 224° |
| 2026-05-05 18:01 | 44.22133 | -69.66373 | 33830 ft | 439 kts | 224° |
| 2026-05-05 18:02 | 44.17547 | -69.71947 | 33830 ft | 440 kts | 224° |
| 2026-05-05 18:02 | 44.12922 | -69.77557 | 33822 ft | 441 kts | 224° |
| 2026-05-05 18:03 | 44.08278 | -69.83178 | 33833 ft | 442 kts | 224° |
| 2026-05-05 18:03 | 44.03633 | -69.88787 | 33833 ft | 443 kts | 224° |
| 2026-05-05 18:04 | 43.98970 | -69.94405 | 33845 ft | 443 kts | 224° |
| 2026-05-05 18:04 | 43.94322 | -69.99994 | 33835 ft | 444 kts | 223° |
| 2026-05-05 18:05 | 43.89634 | -70.05619 | 33839 ft | 444 kts | 223° |
| 2026-05-05 18:05 | 43.84958 | -70.11218 | 33841 ft | 444 kts | 223° |
| 2026-05-05 18:06 | 43.80305 | -70.16778 | 33832 ft | 445 kts | 223° |
| 2026-05-05 18:06 | 43.75607 | -70.22378 | 33807 ft | 445 kts | 223° |
| 2026-05-05 18:07 | 43.70898 | -70.27981 | 33810 ft | 446 kts | 223° |
| 2026-05-05 18:07 | 43.66195 | -70.33563 | 33812 ft | 446 kts | 223° |
| 2026-05-05 18:08 | 43.61480 | -70.39148 | 33821 ft | 446 kts | 223° |
| 2026-05-05 18:08 | 43.56792 | -70.44690 | 33803 ft | 446 kts | 223° |
| 2026-05-05 18:09 | 43.52066 | -70.50266 | 33795 ft | 447 kts | 223° |
| 2026-05-05 18:09 | 43.47338 | -70.55833 | 33784 ft | 447 kts | 223° |
| 2026-05-05 18:10 | 43.42698 | -70.61482 | 33791 ft | 447 kts | 228° |
| 2026-05-05 18:10 | 43.38705 | -70.67990 | 33790 ft | 445 kts | 234° |
| 2026-05-05 18:11 | 43.34848 | -70.74690 | 33783 ft | 446 kts | 233° |
| 2026-05-05 18:11 | 43.30973 | -70.81356 | 33773 ft | 447 kts | 233° |
| 2026-05-05 18:12 | 43.27093 | -70.87995 | 33786 ft | 448 kts | 233° |
| 2026-05-05 18:12 | 43.23180 | -70.94669 | 33781 ft | 448 kts | 233° |
| 2026-05-05 18:13 | 43.19262 | -71.01339 | 33778 ft | 449 kts | 233° |
| 2026-05-05 18:13 | 43.14562 | -71.09319 | 33784 ft | 449 kts | 233° |
| 2026-05-05 18:14 | 43.06718 | -71.22592 | 33801 ft | 448 kts | 233° |
| 2026-05-05 18:14 | 42.98849 | -71.35849 | 33780 ft | 448 kts | 233° |
| 2026-05-05 18:15 | 42.91006 | -71.49000 | 33775 ft | 449 kts | 233° |
| 2026-05-05 18:15 | 42.83107 | -71.62187 | 33796 ft | 449 kts | 233° |
| 2026-05-05 18:16 | 42.75159 | -71.75397 | 33815 ft | 450 kts | 233° |
| 2026-05-05 18:16 | 42.67253 | -71.88478 | 33832 ft | 450 kts | 232° |
| 2026-05-05 18:17 | 42.59267 | -72.01635 | 33826 ft | 450 kts | 232° |
| 2026-05-05 18:17 | 42.51267 | -72.14754 | 33834 ft | 451 kts | 232° |
| 2026-05-05 18:18 | 42.43293 | -72.27773 | 33800 ft | 452 kts | 233° |
| 2026-05-05 18:18 | 42.35250 | -72.40849 | 33801 ft | 452 kts | 232° |
| 2026-05-05 18:19 | 42.27184 | -72.53907 | 33786 ft | 453 kts | 232° |
| 2026-05-05 18:19 | 42.19123 | -72.66901 | 33803 ft | 453 kts | 232° |
| 2026-05-05 18:20 | 42.12038 | -72.80894 | 33804 ft | 451 kts | 241° |
| 2026-05-05 18:20 | 42.05609 | -72.95497 | 33826 ft | 452 kts | 240° |
| 2026-05-05 18:21 | 41.99179 | -73.09923 | 33838 ft | 451 kts | 240° |
| 2026-05-05 18:21 | 41.92716 | -73.24351 | 33831 ft | 447 kts | 241° |
| 2026-05-05 18:22 | 41.86324 | -73.38553 | 33223 ft | 440 kts | 241° |
| 2026-05-05 18:22 | 41.83128 | -73.45636 | 31596 ft | 443 kts | 240° |
| 2026-05-05 18:22 | 41.79990 | -73.52567 | 30439 ft | 437 kts | 241° |
| 2026-05-05 18:22 | 41.76854 | -73.59478 | 29220 ft | 431 kts | 241° |
| 2026-05-05 18:23 | 41.73752 | -73.66303 | 27984 ft | 425 kts | 240° |
| 2026-05-05 18:23 | 41.70725 | -73.72949 | 26843 ft | 418 kts | 240° |
| 2026-05-05 18:23 | 41.67729 | -73.79561 | 25732 ft | 411 kts | 243° |
| 2026-05-05 18:23 | 41.65438 | -73.86504 | 24642 ft | 403 kts | 253° |
| 2026-05-05 18:24 | 41.63798 | -73.93635 | 23583 ft | 398 kts | 253° |
| 2026-05-05 18:24 | 41.62162 | -74.00653 | 22392 ft | 393 kts | 253° |
| 2026-05-05 18:24 | 41.60537 | -74.07558 | 21288 ft | 386 kts | 253° |
| 2026-05-05 18:24 | 41.58929 | -74.14354 | 20204 ft | 381 kts | 253° |
| 2026-05-05 18:25 | 41.57364 | -74.20959 | 19179 ft | 375 kts | 253° |
| 2026-05-05 18:25 | 41.56833 | -74.23191 | 18852 ft | 373 kts | 253° |
| 2026-05-05 18:25 | 41.52965 | -74.33091 | 17109 ft | 366 kts | 223° |
| 2026-05-05 18:25 | 41.48534 | -74.36087 | 16151 ft | 373 kts | 201° |
| 2026-05-05 18:26 | 41.46054 | -74.37048 | 15660 ft | 370 kts | 202° |
| 2026-05-05 18:26 | 41.43598 | -74.38058 | 15167 ft | 367 kts | 203° |
| 2026-05-05 18:26 | 41.41199 | -74.39077 | 14689 ft | 365 kts | 204° |
| 2026-05-05 18:26 | 41.38791 | -74.40114 | 14208 ft | 363 kts | 204° |
| 2026-05-05 18:27 | 41.36386 | -74.41151 | 13727 ft | 361 kts | 204° |
| 2026-05-05 18:27 | 41.34080 | -74.42144 | 13205 ft | 359 kts | 204° |
| 2026-05-05 18:27 | 41.31696 | -74.43169 | 12682 ft | 357 kts | 204° |
| 2026-05-05 18:27 | 41.29359 | -74.44171 | 12200 ft | 354 kts | 204° |
| 2026-05-05 18:28 | 41.24703 | -74.46165 | 11234 ft | 349 kts | 204° |
| 2026-05-05 18:28 | 41.22417 | -74.47143 | 10862 ft | 344 kts | 204° |
| 2026-05-05 18:28 | 41.20237 | -74.48064 | 10687 ft | 309 kts | 204° |
| 2026-05-05 18:29 | 41.18309 | -74.48879 | 10549 ft | 278 kts | 205° |
| 2026-05-05 18:29 | 41.16217 | -74.49773 | 10424 ft | 245 kts | 205° |
| 2026-05-05 18:29 | 41.14352 | -74.50565 | 10296 ft | 217 kts | 206° |
| 2026-05-05 18:29 | 41.12855 | -74.51218 | 10299 ft | 238 kts | 206° |
| 2026-05-05 18:30 | 41.09729 | -74.52560 | 10116 ft | 247 kts | 203° |
| 2026-05-05 18:30 | 41.06303 | -74.51828 | 9657 ft | 269 kts | 159° |
| 2026-05-05 18:30 | 41.04736 | -74.49910 | 9261 ft | 281 kts | 133° |
| 2026-05-05 18:30 | 41.03666 | -74.47729 | 8971 ft | 283 kts | 131° |
| 2026-05-05 18:31 | 41.01793 | -74.43891 | 8400 ft | 291 kts | 130° |
| 2026-05-05 18:31 | 40.99631 | -74.39455 | 7788 ft | 287 kts | 130° |
| 2026-05-05 18:31 | 40.97456 | -74.35021 | 7140 ft | 286 kts | 130° |
| 2026-05-05 18:31 | 40.95972 | -74.32017 | 6683 ft | 287 kts | 129° |
| 2026-05-05 18:32 | 40.94877 | -74.29806 | 6348 ft | 288 kts | 129° |
| 2026-05-05 18:32 | 40.93781 | -74.27596 | 6058 ft | 286 kts | 129° |
| 2026-05-05 18:32 | 40.92690 | -74.25395 | 5776 ft | 284 kts | 129° |
| 2026-05-05 18:32 | 40.91600 | -74.23200 | 5445 ft | 283 kts | 129° |
| 2026-05-05 18:33 | 40.90519 | -74.21025 | 5124 ft | 282 kts | 129° |
| 2026-05-05 18:33 | 40.89804 | -74.19586 | 4869 ft | 283 kts | 129° |
| 2026-05-05 18:33 | 40.88728 | -74.17426 | 4546 ft | 280 kts | 128° |
| 2026-05-05 18:33 | 40.87324 | -74.14598 | 4260 ft | 273 kts | 129° |
| 2026-05-05 18:34 | 40.86287 | -74.12517 | 4057 ft | 268 kts | 129° |
| 2026-05-05 18:34 | 40.85620 | -74.11178 | 4008 ft | 260 kts | 129° |
| 2026-05-05 18:34 | 40.84642 | -74.09220 | 3909 ft | 248 kts | 130° |
| 2026-05-05 18:34 | 40.83477 | -74.07725 | 3696 ft | 225 kts | 161° |
| 2026-05-05 18:35 | 40.81983 | -74.07211 | 3227 ft | 223 kts | 180° |
| 2026-05-05 18:35 | 40.80469 | -74.07110 | 3018 ft | 217 kts | 182° |
| 2026-05-05 18:35 | 40.78987 | -74.07059 | 2834 ft | 209 kts | 183° |
| 2026-05-05 18:35 | 40.77531 | -74.07018 | 2564 ft | 207 kts | 182° |
| 2026-05-05 18:36 | 40.76103 | -74.07042 | 2275 ft | 202 kts | 186° |
| 2026-05-05 18:36 | 40.74748 | -74.07202 | 1795 ft | 194 kts | 191° |
| 2026-05-05 18:36 | 40.73544 | -74.07643 | 1496 ft | 170 kts | 206° |
| 2026-05-05 18:36 | 40.72564 | -74.08441 | 1027 ft | 162 kts | 218° |
| 2026-05-05 18:37 | 40.71821 | -74.09492 | 693 ft | 150 kts | 234° |
| 2026-05-05 18:37 | 40.71345 | -74.10639 | 579 ft | 136 kts | 236° |
| 2026-05-05 18:37 | 40.70905 | -74.11687 | 461 ft | 128 kts | 234° |
| 2026-05-05 18:37 | 40.70465 | -74.12724 | 467 ft | 132 kts | 240° |
| 2026-05-05 18:38 | 40.70188 | -74.13887 | 337 ft | 135 kts | 252° |
| 2026-05-05 18:38 | 40.70100 | -74.15145 | 123 ft | 141 kts | 264° |
| 2026-05-05 18:38 | 40.70161 | -74.16387 | 28 ft | 122 kts | 272° |
| 2026-05-05 18:38 | 40.70219 | -74.17153 | 27 ft | 62 kts | 275° |
| 2026-05-05 18:39 | 40.70243 | -74.17519 | 28 ft | 29 kts | 274° |
| 2026-05-05 18:39 | 40.70217 | -74.17739 | 27 ft | 14 kts | 247° |
| 2026-05-05 18:39 | 40.70174 | -74.17859 | 27 ft | 14 kts | 243° |
| 2026-05-05 18:39 | 40.70094 | -74.17912 | 27 ft | 14 kts | 156° |
| 2026-05-05 18:40 | 40.70070 | -74.17789 | 27 ft | 15 kts | 93° |
| 2026-05-05 18:40 | 40.70041 | -74.17670 | 27 ft | 14 kts | 156° |
| 2026-05-05 18:40 | 40.69984 | -74.17749 | 27 ft | 15 kts | 271° |
| 2026-05-05 18:40 | 40.69965 | -74.17850 | 27 ft | 8 kts | 210° |
| 2026-05-05 18:41 | 40.69935 | -74.17870 | 27 ft | 0 kts | 205° |